sensor_id;sensor_type;location;lat;lon;timestamp;P1;durP1;ratioP1;P2;durP2;ratioP2
8777;SDS011;4425;50.872;4.712;2023-10-13T09:41:37;20.93;;;9.43;;
8777;SDS011;4425;50.872;4.712;2023-10-13T09:44:06;24.80;;;12.40;;
8777;SDS011;4425;50.872;4.712;2023-10-13T09:46:37;19.98;;;10.25;;
8777;SDS011;4425;50.872;4.712;2023-10-13T09:49:10;20.20;;;9.85;;
8777;SDS011;4425;50.872;4.712;2023-10-13T09:51:40;17.90;;;8.73;;
8777;SDS011;4425;50.872;4.712;2023-10-13T09:54:11;14.73;;;8.95;;
8777;SDS011;4425;50.872;4.712;2023-10-13T09:56:53;21.35;;;8.77;;
8777;SDS011;4425;50.872;4.712;2023-10-13T09:59:27;22.83;;;9.65;;
8777;SDS011;4425;50.872;4.712;2023-10-13T10:02:00;24.30;;;11.20;;
8777;SDS011;4425;50.872;4.712;2023-10-13T10:04:34;16.65;;;9.48;;
8777;SDS011;4425;50.872;4.712;2023-10-13T10:07:09;20.42;;;8.82;;
8777;SDS011;4425;50.872;4.712;2023-10-13T10:09:36;19.23;;;9.00;;
8777;SDS011;4425;50.872;4.712;2023-10-13T10:12:11;19.13;;;8.63;;
8777;SDS011;4425;50.872;4.712;2023-10-13T10:14:56;19.03;;;8.90;;
8777;SDS011;4425;50.872;4.712;2023-10-13T10:17:38;18.75;;;9.40;;
8777;SDS011;4425;50.872;4.712;2023-10-13T10:20:07;18.70;;;8.43;;
8777;SDS011;4425;50.872;4.712;2023-10-13T10:22:55;21.60;;;9.73;;
8777;SDS011;4425;50.872;4.712;2023-10-13T10:25:31;18.77;;;8.20;;
8777;SDS011;4425;50.872;4.712;2023-10-13T10:28:02;1.90;;;1.80;;
8777;SDS011;4425;50.872;4.712;2023-10-13T10:30:32;3.50;;;0.98;;
8777;SDS011;4425;50.872;4.712;2023-10-13T10:33:00;0.93;;;0.93;;
8777;SDS011;4425;50.872;4.712;2023-10-13T10:35:32;1.95;;;1.85;;
8777;SDS011;4425;50.872;4.712;2023-10-13T10:38:07;1.00;;;1.00;;
8777;SDS011;4425;50.872;4.712;2023-10-13T10:40:50;0.88;;;0.85;;
8777;SDS011;4425;50.872;4.712;2023-10-13T10:43:24;7.55;;;2.65;;
8777;SDS011;4425;50.872;4.712;2023-10-13T10:45:54;0.95;;;0.52;;
8777;SDS011;4425;50.872;4.712;2023-10-13T10:48:26;7.00;;;3.83;;
8777;SDS011;4425;50.872;4.712;2023-10-13T10:50:59;0.70;;;0.65;;
8777;SDS011;4425;50.872;4.712;2023-10-13T10:53:33;22.30;;;7.18;;
8777;SDS011;4425;50.872;4.712;2023-10-13T10:56:09;20.55;;;8.23;;
8777;SDS011;4425;50.872;4.712;2023-10-13T10:59:03;28.47;;;8.57;;
8777;SDS011;4425;50.872;4.712;2023-10-13T11:01:32;32.33;;;8.50;;
8777;SDS011;4425;50.872;4.712;2023-10-13T11:04:12;24.35;;;7.80;;
8777;SDS011;4425;50.872;4.712;2023-10-13T11:06:47;3.50;;;1.80;;
8777;SDS011;4425;50.872;4.712;2023-10-13T11:09:23;1.95;;;1.50;;
8777;SDS011;4425;50.872;4.712;2023-10-13T11:12:09;0.20;;;0.20;;
8777;SDS011;4425;50.872;4.712;2023-10-13T11:14:42;14.20;;;2.00;;
8777;SDS011;4425;50.872;4.712;2023-10-13T11:17:18;25.90;;;8.15;;
8777;SDS011;4425;50.872;4.712;2023-10-13T11:19:51;0.20;;;0.20;;
8777;SDS011;4425;50.872;4.712;2023-10-13T11:22:19;24.85;;;7.25;;
8777;SDS011;4425;50.872;4.712;2023-10-13T11:24:57;23.25;;;7.53;;
8777;SDS011;4425;50.872;4.712;2023-10-13T11:27:29;19.92;;;7.72;;
8777;SDS011;4425;50.872;4.712;2023-10-13T11:30:23;22.98;;;7.63;;
8777;SDS011;4425;50.872;4.712;2023-10-13T11:32:58;22.40;;;9.00;;
8777;SDS011;4425;50.872;4.712;2023-10-13T11:35:30;23.92;;;8.93;;
8777;SDS011;4425;50.872;4.712;2023-10-13T11:38:11;22.65;;;7.95;;
8777;SDS011;4425;50.872;4.712;2023-10-13T11:40:39;33.70;;;10.68;;
8777;SDS011;4425;50.872;4.712;2023-10-13T11:43:24;29.00;;;10.02;;
8777;SDS011;4425;50.872;4.712;2023-10-13T11:45:53;6.10;;;2.30;;
8777;SDS011;4425;50.872;4.712;2023-10-13T11:48:38;1.30;;;1.00;;
8777;SDS011;4425;50.872;4.712;2023-10-13T11:51:07;1.50;;;0.68;;
8777;SDS011;4425;50.872;4.712;2023-10-13T11:53:42;8.70;;;2.20;;
8777;SDS011;4425;50.872;4.712;2023-10-13T11:56:13;0.13;;;0.13;;
8777;SDS011;4425;50.872;4.712;2023-10-13T11:58:42;5.75;;;1.50;;
8777;SDS011;4425;50.872;4.712;2023-10-13T12:01:12;0.70;;;0.70;;
8777;SDS011;4425;50.872;4.712;2023-10-13T12:03:47;1.08;;;0.98;;
8777;SDS011;4425;50.872;4.712;2023-10-13T12:06:47;1.83;;;1.73;;
8777;SDS011;4425;50.872;4.712;2023-10-13T12:09:28;2.50;;;2.30;;
8777;SDS011;4425;50.872;4.712;2023-10-13T12:12:07;18.63;;;7.20;;
8777;SDS011;4425;50.872;4.712;2023-10-13T12:14:34;28.73;;;11.40;;
8777;SDS011;4425;50.872;4.712;2023-10-13T12:17:04;19.13;;;7.78;;
8777;SDS011;4425;50.872;4.712;2023-10-13T12:19:35;21.77;;;8.27;;
8777;SDS011;4425;50.872;4.712;2023-10-13T12:22:04;10.20;;;3.83;;
8777;SDS011;4425;50.872;4.712;2023-10-13T12:24:34;7.95;;;4.07;;
8777;SDS011;4425;50.872;4.712;2023-10-13T12:27:08;0.10;;;0.10;;
8777;SDS011;4425;50.872;4.712;2023-10-13T12:29:48;1.80;;;1.17;;
8777;SDS011;4425;50.872;4.712;2023-10-13T12:32:18;7.70;;;1.42;;
8777;SDS011;4425;50.872;4.712;2023-10-13T12:34:48;1.00;;;0.40;;
8777;SDS011;4425;50.872;4.712;2023-10-13T12:37:26;19.48;;;7.45;;
8777;SDS011;4425;50.872;4.712;2023-10-13T12:40:15;24.60;;;8.75;;
8777;SDS011;4425;50.872;4.712;2023-10-13T12:43:01;0.27;;;0.27;;
8777;SDS011;4425;50.872;4.712;2023-10-13T12:45:46;24.73;;;7.43;;
8777;SDS011;4425;50.872;4.712;2023-10-13T12:48:33;21.70;;;7.50;;
8777;SDS011;4425;50.872;4.712;2023-10-13T12:51:20;24.50;;;7.30;;
8777;SDS011;4425;50.872;4.712;2023-10-13T12:54:05;18.30;;;7.10;;
8777;SDS011;4425;50.872;4.712;2023-10-13T12:56:40;20.25;;;7.20;;
8777;SDS011;4425;50.872;4.712;2023-10-13T12:59:11;20.00;;;7.70;;
8777;SDS011;4425;50.872;4.712;2023-10-13T13:01:42;16.63;;;7.03;;
8777;SDS011;4425;50.872;4.712;2023-10-13T13:04:11;18.63;;;8.18;;
8777;SDS011;4425;50.872;4.712;2023-10-13T13:06:45;18.52;;;7.35;;
8777;SDS011;4425;50.872;4.712;2023-10-13T13:09:12;21.88;;;7.68;;
8777;SDS011;4425;50.872;4.712;2023-10-13T13:11:40;20.43;;;8.37;;
8777;SDS011;4425;50.872;4.712;2023-10-13T13:14:32;12.10;;;6.35;;
8777;SDS011;4425;50.872;4.712;2023-10-13T13:16:59;17.42;;;7.80;;
8777;SDS011;4425;50.872;4.712;2023-10-13T13:19:36;15.65;;;7.05;;
8777;SDS011;4425;50.872;4.712;2023-10-13T13:22:05;20.85;;;7.53;;
8777;SDS011;4425;50.872;4.712;2023-10-13T13:24:38;15.85;;;6.70;;
8777;SDS011;4425;50.872;4.712;2023-10-13T13:27:08;18.42;;;7.57;;
8777;SDS011;4425;50.872;4.712;2023-10-13T13:29:40;19.43;;;7.33;;
8777;SDS011;4425;50.872;4.712;2023-10-13T13:32:07;17.55;;;7.22;;
8777;SDS011;4425;50.872;4.712;2023-10-13T13:34:44;14.35;;;6.72;;
8777;SDS011;4425;50.872;4.712;2023-10-13T13:37:25;13.77;;;6.77;;
8777;SDS011;4425;50.872;4.712;2023-10-13T13:39:54;11.60;;;6.45;;
8777;SDS011;4425;50.872;4.712;2023-10-13T13:42:21;14.32;;;6.50;;
8777;SDS011;4425;50.872;4.712;2023-10-13T13:44:48;13.73;;;7.15;;
8777;SDS011;4425;50.872;4.712;2023-10-13T13:47:24;1.70;;;1.17;;
8777;SDS011;4425;50.872;4.712;2023-10-13T13:50:00;3.72;;;1.98;;
8777;SDS011;4425;50.872;4.712;2023-10-13T13:52:30;0.80;;;0.70;;
8777;SDS011;4425;50.872;4.712;2023-10-13T13:55:10;17.90;;;6.95;;
8777;SDS011;4425;50.872;4.712;2023-10-13T13:57:42;2.20;;;1.23;;
8777;SDS011;4425;50.872;4.712;2023-10-13T14:00:10;0.50;;;0.50;;
8777;SDS011;4425;50.872;4.712;2023-10-13T14:02:43;10.07;;;6.68;;
8777;SDS011;4425;50.872;4.712;2023-10-13T14:05:14;13.25;;;7.20;;
8777;SDS011;4425;50.872;4.712;2023-10-13T14:07:42;15.00;;;7.47;;
8777;SDS011;4425;50.872;4.712;2023-10-13T14:10:14;14.02;;;7.05;;
8777;SDS011;4425;50.872;4.712;2023-10-13T14:12:57;13.25;;;6.80;;
8777;SDS011;4425;50.872;4.712;2023-10-13T14:15:34;16.52;;;7.75;;
8777;SDS011;4425;50.872;4.712;2023-10-13T14:18:09;12.80;;;6.65;;
8777;SDS011;4425;50.872;4.712;2023-10-13T14:20:41;11.55;;;6.43;;
8777;SDS011;4425;50.872;4.712;2023-10-13T14:23:08;16.63;;;6.30;;
8777;SDS011;4425;50.872;4.712;2023-10-13T14:25:37;0.87;;;0.87;;
8777;SDS011;4425;50.872;4.712;2023-10-13T14:28:09;4.10;;;1.50;;
8777;SDS011;4425;50.872;4.712;2023-10-13T14:30:42;0.47;;;0.47;;
8777;SDS011;4425;50.872;4.712;2023-10-13T14:33:10;2.83;;;1.90;;
8777;SDS011;4425;50.872;4.712;2023-10-13T14:35:38;0.65;;;0.65;;
8777;SDS011;4425;50.872;4.712;2023-10-13T14:38:06;0.20;;;0.20;;
8777;SDS011;4425;50.872;4.712;2023-10-13T14:40:33;0.20;;;0.20;;
8777;SDS011;4425;50.872;4.712;2023-10-13T14:43:00;0.20;;;0.20;;
8777;SDS011;4425;50.872;4.712;2023-10-13T14:45:29;0.20;;;0.20;;
8777;SDS011;4425;50.872;4.712;2023-10-13T14:47:59;0.20;;;0.20;;
8777;SDS011;4425;50.872;4.712;2023-10-13T14:50:26;21.65;;;7.45;;
8777;SDS011;4425;50.872;4.712;2023-10-13T14:52:53;19.92;;;8.02;;
8777;SDS011;4425;50.872;4.712;2023-10-13T14:55:24;18.13;;;6.95;;
8777;SDS011;4425;50.872;4.712;2023-10-13T14:58:03;20.00;;;6.88;;
8777;SDS011;4425;50.872;4.712;2023-10-13T15:00:33;11.70;;;6.25;;
8777;SDS011;4425;50.872;4.712;2023-10-13T15:03:05;15.02;;;6.78;;
8777;SDS011;4425;50.872;4.712;2023-10-13T15:05:41;22.17;;;7.22;;
8777;SDS011;4425;50.872;4.712;2023-10-13T15:08:13;13.35;;;6.57;;
8777;SDS011;4425;50.872;4.712;2023-10-13T15:10:45;10.57;;;6.57;;
8777;SDS011;4425;50.872;4.712;2023-10-13T15:13:12;13.52;;;6.18;;
8777;SDS011;4425;50.872;4.712;2023-10-13T15:15:39;14.98;;;6.35;;
8777;SDS011;4425;50.872;4.712;2023-10-13T15:18:06;14.77;;;7.40;;
8777;SDS011;4425;50.872;4.712;2023-10-13T15:20:38;2.20;;;1.08;;
8777;SDS011;4425;50.872;4.712;2023-10-13T15:23:15;18.75;;;7.10;;
8777;SDS011;4425;50.872;4.712;2023-10-13T15:25:49;6.47;;;3.35;;
8777;SDS011;4425;50.872;4.712;2023-10-13T15:28:17;0.30;;;0.30;;
8777;SDS011;4425;50.872;4.712;2023-10-13T15:30:46;2.13;;;0.60;;
8777;SDS011;4425;50.872;4.712;2023-10-13T15:33:22;13.15;;;6.82;;
8777;SDS011;4425;50.872;4.712;2023-10-13T15:35:50;12.05;;;6.63;;
8777;SDS011;4425;50.872;4.712;2023-10-13T15:38:26;16.90;;;6.70;;
8777;SDS011;4425;50.872;4.712;2023-10-13T15:40:58;17.58;;;7.32;;
8777;SDS011;4425;50.872;4.712;2023-10-13T15:43:29;17.98;;;7.05;;
8777;SDS011;4425;50.872;4.712;2023-10-13T15:45:56;14.20;;;6.70;;
8777;SDS011;4425;50.872;4.712;2023-10-13T15:48:29;3.80;;;1.55;;
8777;SDS011;4425;50.872;4.712;2023-10-13T15:51:01;1.58;;;1.17;;
8777;SDS011;4425;50.872;4.712;2023-10-13T15:53:28;20.08;;;1.35;;
8777;SDS011;4425;50.872;4.712;2023-10-13T15:56:00;13.77;;;2.10;;
8777;SDS011;4425;50.872;4.712;2023-10-13T15:58:36;1.85;;;1.75;;
8777;SDS011;4425;50.872;4.712;2023-10-13T16:01:04;2.05;;;1.52;;
8777;SDS011;4425;50.872;4.712;2023-10-13T16:03:32;0.80;;;0.65;;
8777;SDS011;4425;50.872;4.712;2023-10-13T16:06:04;0.75;;;0.75;;
8777;SDS011;4425;50.872;4.712;2023-10-13T16:08:35;2.90;;;1.90;;
8777;SDS011;4425;50.872;4.712;2023-10-13T16:11:05;3.08;;;2.15;;
8777;SDS011;4425;50.872;4.712;2023-10-13T16:13:34;0.20;;;0.20;;
8777;SDS011;4425;50.872;4.712;2023-10-13T16:16:02;14.80;;;6.82;;
8777;SDS011;4425;50.872;4.712;2023-10-13T16:18:29;11.75;;;6.63;;
8777;SDS011;4425;50.872;4.712;2023-10-13T16:20:58;13.82;;;6.43;;
8777;SDS011;4425;50.872;4.712;2023-10-13T16:23:28;12.43;;;6.82;;
8777;SDS011;4425;50.872;4.712;2023-10-13T16:25:56;9.90;;;6.75;;
8777;SDS011;4425;50.872;4.712;2023-10-13T16:28:28;1.40;;;1.20;;
8777;SDS011;4425;50.872;4.712;2023-10-13T16:30:59;1.60;;;1.50;;
8777;SDS011;4425;50.872;4.712;2023-10-13T16:33:26;4.68;;;1.50;;
8777;SDS011;4425;50.872;4.712;2023-10-13T16:35:54;1.92;;;1.48;;
8777;SDS011;4425;50.872;4.712;2023-10-13T16:38:21;2.42;;;1.17;;
8777;SDS011;4425;50.872;4.712;2023-10-13T16:40:51;1.70;;;1.52;;
8777;SDS011;4425;50.872;4.712;2023-10-13T16:43:18;1.48;;;1.38;;
8777;SDS011;4425;50.872;4.712;2023-10-13T16:45:47;0.90;;;0.90;;
8777;SDS011;4425;50.872;4.712;2023-10-13T16:48:14;0.73;;;0.73;;
8777;SDS011;4425;50.872;4.712;2023-10-13T16:50:45;13.48;;;7.15;;
8777;SDS011;4425;50.872;4.712;2023-10-13T16:53:12;12.60;;;7.05;;
8777;SDS011;4425;50.872;4.712;2023-10-13T16:55:39;13.13;;;7.22;;
8777;SDS011;4425;50.872;4.712;2023-10-13T16:58:08;14.35;;;7.47;;
8777;SDS011;4425;50.872;4.712;2023-10-13T17:00:37;14.27;;;7.38;;
8777;SDS011;4425;50.872;4.712;2023-10-13T17:03:09;12.25;;;7.30;;
8777;SDS011;4425;50.872;4.712;2023-10-13T17:05:40;13.25;;;7.35;;
8777;SDS011;4425;50.872;4.712;2023-10-13T17:08:08;11.63;;;7.68;;
8777;SDS011;4425;50.872;4.712;2023-10-13T17:10:35;10.57;;;6.90;;
8777;SDS011;4425;50.872;4.712;2023-10-13T17:13:02;13.00;;;7.57;;
8777;SDS011;4425;50.872;4.712;2023-10-13T17:15:30;17.13;;;7.88;;
8777;SDS011;4425;50.872;4.712;2023-10-13T17:17:58;13.37;;;7.50;;
8777;SDS011;4425;50.872;4.712;2023-10-13T17:20:27;16.77;;;7.43;;
8777;SDS011;4425;50.872;4.712;2023-10-13T17:22:54;11.50;;;6.80;;
8777;SDS011;4425;50.872;4.712;2023-10-13T21:46:05;17.40;;;8.70;;
8777;SDS011;4425;50.872;4.712;2023-10-13T21:48:33;18.13;;;9.43;;
8777;SDS011;4425;50.872;4.712;2023-10-13T21:51:06;20.30;;;9.25;;
8777;SDS011;4425;50.872;4.712;2023-10-13T21:53:34;17.30;;;8.90;;
8777;SDS011;4425;50.872;4.712;2023-10-13T21:56:01;15.23;;;9.07;;
8777;SDS011;4425;50.872;4.712;2023-10-13T21:58:29;17.30;;;9.32;;
8777;SDS011;4425;50.872;4.712;2023-10-13T22:00:55;18.48;;;9.18;;
8777;SDS011;4425;50.872;4.712;2023-10-13T22:03:25;17.00;;;9.00;;
8777;SDS011;4425;50.872;4.712;2023-10-13T22:05:55;19.50;;;8.90;;
8777;SDS011;4425;50.872;4.712;2023-10-13T22:08:25;21.15;;;9.02;;
8777;SDS011;4425;50.872;4.712;2023-10-13T22:10:54;16.08;;;8.90;;
8777;SDS011;4425;50.872;4.712;2023-10-13T22:13:22;21.85;;;8.85;;
8777;SDS011;4425;50.872;4.712;2023-10-13T22:15:49;16.45;;;8.40;;
8777;SDS011;4425;50.872;4.712;2023-10-13T22:18:16;14.25;;;8.32;;
8777;SDS011;4425;50.872;4.712;2023-10-13T22:20:44;15.77;;;8.35;;
8777;SDS011;4425;50.872;4.712;2023-10-13T22:23:12;12.98;;;6.93;;
8777;SDS011;4425;50.872;4.712;2023-10-13T22:25:40;14.63;;;6.93;;
8777;SDS011;4425;50.872;4.712;2023-10-13T22:28:06;12.52;;;6.85;;
8777;SDS011;4425;50.872;4.712;2023-10-13T22:30:33;13.27;;;6.65;;
8777;SDS011;4425;50.872;4.712;2023-10-13T22:33:00;13.55;;;6.38;;
8777;SDS011;4425;50.872;4.712;2023-10-13T22:35:27;13.93;;;6.13;;
8777;SDS011;4425;50.872;4.712;2023-10-13T22:37:55;16.95;;;6.20;;
8777;SDS011;4425;50.872;4.712;2023-10-13T22:40:23;13.35;;;5.55;;
8777;SDS011;4425;50.872;4.712;2023-10-13T22:42:50;11.73;;;5.30;;
8777;SDS011;4425;50.872;4.712;2023-10-13T22:45:18;11.30;;;5.40;;
8777;SDS011;4425;50.872;4.712;2023-10-13T22:47:48;13.63;;;5.68;;
8777;SDS011;4425;50.872;4.712;2023-10-13T22:50:16;12.77;;;5.43;;
8777;SDS011;4425;50.872;4.712;2023-10-13T22:52:46;14.07;;;5.28;;
8777;SDS011;4425;50.872;4.712;2023-10-13T22:55:16;11.93;;;4.83;;
8777;SDS011;4425;50.872;4.712;2023-10-13T22:57:46;12.20;;;4.75;;
8777;SDS011;4425;50.872;4.712;2023-10-13T23:00:14;9.55;;;4.72;;
8777;SDS011;4425;50.872;4.712;2023-10-13T23:02:44;12.80;;;4.47;;
8777;SDS011;4425;50.872;4.712;2023-10-13T23:05:14;12.95;;;4.43;;
8777;SDS011;4425;50.872;4.712;2023-10-13T23:07:54;12.30;;;4.18;;
8777;SDS011;4425;50.872;4.712;2023-10-13T23:10:35;9.65;;;3.42;;
8777;SDS011;4425;50.872;4.712;2023-10-13T23:13:11;10.82;;;3.65;;
8777;SDS011;4425;50.872;4.712;2023-10-13T23:15:40;10.30;;;3.60;;
8777;SDS011;4425;50.872;4.712;2023-10-13T23:18:07;6.28;;;3.00;;
8777;SDS011;4425;50.872;4.712;2023-10-13T23:20:37;7.15;;;3.17;;
8777;SDS011;4425;50.872;4.712;2023-10-13T23:23:08;5.88;;;2.70;;
8777;SDS011;4425;50.872;4.712;2023-10-13T23:25:37;8.52;;;2.70;;
8777;SDS011;4425;50.872;4.712;2023-10-13T23:28:06;7.68;;;2.80;;
8777;SDS011;4425;50.872;4.712;2023-10-13T23:30:34;8.17;;;2.47;;
8777;SDS011;4425;50.872;4.712;2023-10-13T23:33:02;6.00;;;2.50;;
8777;SDS011;4425;50.872;4.712;2023-10-13T23:35:30;7.57;;;2.60;;
8777;SDS011;4425;50.872;4.712;2023-10-13T23:37:59;7.10;;;2.30;;
8777;SDS011;4425;50.872;4.712;2023-10-13T23:40:43;6.60;;;2.42;;
8777;SDS011;4425;50.872;4.712;2023-10-13T23:43:11;5.97;;;2.10;;
8777;SDS011;4425;50.872;4.712;2023-10-13T23:45:49;6.07;;;2.38;;
8777;SDS011;4425;50.872;4.712;2023-10-13T23:48:23;8.03;;;2.50;;
8777;SDS011;4425;50.872;4.712;2023-10-13T23:50:50;4.35;;;2.10;;
8777;SDS011;4425;50.872;4.712;2023-10-13T23:53:27;7.10;;;2.30;;
8777;SDS011;4425;50.872;4.712;2023-10-13T23:55:59;7.18;;;2.83;;
8777;SDS011;4425;50.872;4.712;2023-10-13T23:58:29;6.73;;;2.53;;
